Time;durP1;ratioP1;P1;durP2;ratioP2;P2;SDS_P1;SDS_P2;PMS_P1;PMS_P2;Temp;Humidity;BMP_temperature;BMP_pressure;BME280_temperature;BME280_humidity;BME280_pressure;Samples;Min_cycle;Max_cycle;Signal;HPM_P1;HPM_P2
2022/01/28 00:01:56;;;;;;;10.50;4.45;;;-7.20;99.90;;;;;;2224781;64;20114;-43
2022/01/28 00:04:23;;;;;;;12.57;5.33;;;-7.20;99.90;;;;;;2224955;64;20096;-42
2022/01/28 00:06:49;;;;;;;11.03;5.13;;;-7.20;99.90;;;;;;2224845;64;20530;-43
2022/01/28 00:09:16;;;;;;;12.53;6.03;;;-7.20;99.90;;;;;;2224910;64;20080;-41
2022/01/28 00:11:42;;;;;;;13.17;5.47;;;-7.30;99.90;;;;;;2224646;64;20100;-43
2022/01/28 00:14:24;;;;;;;10.43;4.80;;;-7.30;99.90;;;;;;2224815;64;20076;-44
2022/01/28 00:17:29;;;;;;;15.10;6.90;;;-7.30;99.90;;;;;;2224773;64;20602;-42
2022/01/28 00:38:44;;;;;;;8.88;3.95;;;-7.50;99.90;;;;;;2220787;64;20173;-42
2022/01/28 00:41:11;;;;;;;16.20;6.77;;;-7.50;99.90;;;;;;2220615;64;20546;-42
2022/01/28 00:43:38;;;;;;;13.30;5.20;;;-7.50;99.90;;;;;;2220889;64;20560;-43
2022/01/28 00:46:04;;;;;;;12.60;3.77;;;-7.60;99.90;;;;;;2220892;64;20088;-42
2022/01/28 00:48:30;;;;;;;18.77;6.57;;;-7.60;99.90;;;;;;2220795;64;20092;-42
2022/01/28 00:50:57;;;;;;;9.83;4.30;;;-7.50;99.90;;;;;;2220645;64;20257;-42
2022/01/28 00:53:23;;;;;;;16.47;6.47;;;-7.50;99.90;;;;;;2220966;64;20084;-42
2022/01/28 00:55:50;;;;;;;16.70;5.60;;;-7.50;99.90;;;;;;2220677;64;20099;-43
2022/01/28 00:58:16;;;;;;;10.37;4.50;;;-7.60;99.90;;;;;;2220829;64;20092;-41
2022/01/28 01:00:42;;;;;;;18.43;5.70;;;-7.50;99.90;;;;;;2220685;64;20100;-43
2022/01/28 01:03:09;;;;;;;16.03;7.03;;;-7.60;99.90;;;;;;2220781;64;20560;-43
2022/01/28 01:05:35;;;;;;;16.30;6.77;;;-7.60;99.90;;;;;;2220810;64;20456;-44
2022/01/28 01:08:02;;;;;;;17.33;6.33;;;-7.60;99.90;;;;;;2220905;64;20089;-43
2022/01/28 01:10:29;;;;;;;13.07;5.27;;;-7.60;99.90;;;;;;2216762;64;20081;-43
2022/01/28 01:12:55;;;;;;;16.23;8.47;;;-7.60;99.90;;;;;;2220961;64;20123;-43
2022/01/28 01:15:26;;;;;;;16.30;7.10;;;-7.60;99.90;;;;;;2223215;64;20169;-42
2022/01/28 01:23:04;;;;;;;10.77;4.83;;;-7.60;99.90;;;;;;2220846;64;20112;-42
2022/01/28 01:25:30;;;;;;;14.03;5.60;;;-7.60;99.90;;;;;;2217277;64;20096;-42
2022/01/28 01:27:58;;;;;;;8.57;2.97;;;-7.60;99.90;;;;;;2220856;64;20084;-42
2022/01/28 01:30:28;;;;;;;12.57;5.53;;;-7.60;99.90;;;;;;2220679;64;20476;-42
2022/01/28 01:32:55;;;;;;;16.90;5.33;;;-7.60;99.90;;;;;;2222631;64;20583;-43
2022/01/28 01:35:21;;;;;;;20.20;8.17;;;-7.60;99.90;;;;;;2224432;64;20095;-43
2022/01/28 01:37:47;;;;;;;15.83;7.40;;;-7.70;99.90;;;;;;2224662;64;20107;-43
2022/01/28 01:40:19;;;;;;;14.77;5.83;;;-7.70;99.90;;;;;;2224457;64;20107;-43
2022/01/28 01:42:54;;;;;;;14.47;5.90;;;-7.70;99.90;;;;;;2224595;64;20171;-43
2022/01/28 01:53:29;;;;;;;9.15;4.47;;;-7.80;99.90;;;;;;2224616;64;20084;-40
2022/01/28 01:55:56;;;;;;;11.33;4.73;;;-7.80;99.90;;;;;;2224318;64;20154;-43
2022/01/28 01:58:30;;;;;;;12.80;5.53;;;-7.80;99.90;;;;;;2224427;64;20169;-42
2022/01/28 02:01:00;;;;;;;10.63;4.18;;;-7.80;99.90;;;;;;2224566;64;20084;-43
2022/01/28 02:03:28;;;;;;;20.30;8.33;;;-7.80;99.90;;;;;;2224620;64;20108;-43
2022/01/28 02:05:58;;;;;;;9.80;3.43;;;-7.90;99.90;;;;;;2224453;64;20080;-42
2022/01/28 02:08:30;;;;;;;7.17;1.80;;;-7.90;99.90;;;;;;2224170;64;20122;-44
2022/01/28 02:10:57;;;;;;;9.07;3.30;;;-7.90;99.90;;;;;;2220577;64;20180;-43
2022/01/28 02:13:25;;;;;;;7.80;3.80;;;-7.90;99.90;;;;;;2216757;64;20139;-43
2022/01/28 02:15:53;;;;;;;14.63;6.17;;;-7.90;99.90;;;;;;2220531;64;20560;-43
2022/01/28 02:18:21;;;;;;;19.73;6.17;;;-7.90;99.90;;;;;;2220548;64;20092;-42
2022/01/28 02:20:52;;;;;;;10.70;3.17;;;-8.00;99.90;;;;;;2220541;64;20092;-42
2022/01/28 02:23:20;;;;;;;15.07;5.17;;;-7.90;99.90;;;;;;2220622;64;20100;-42
2022/01/28 02:25:46;;;;;;;11.53;4.43;;;-8.00;99.90;;;;;;2220462;64;20107;-42
2022/01/28 02:28:16;;;;;;;9.77;3.00;;;-7.90;99.90;;;;;;2220500;64;20085;-43
2022/01/28 02:30:42;;;;;;;16.27;5.73;;;-7.90;99.90;;;;;;2220346;64;20107;-42
2022/01/28 02:33:14;;;;;;;10.67;4.97;;;-7.90;99.90;;;;;;2220459;64;20503;-43
2022/01/28 02:35:42;;;;;;;13.80;6.17;;;-7.90;99.90;;;;;;2220464;64;20107;-42
2022/01/28 02:38:10;;;;;;;15.33;6.87;;;-7.90;99.90;;;;;;2220605;64;20081;-43
2022/01/28 02:40:37;;;;;;;20.00;8.40;;;-7.90;99.90;;;;;;2216591;64;20552;-42
2022/01/28 02:43:19;;;;;;;18.37;6.07;;;-7.90;99.90;;;;;;2220674;64;20154;-43
2022/01/28 02:45:47;;;;;;;16.63;5.77;;;-7.90;99.90;;;;;;2220267;64;20496;-43
2022/01/28 02:48:24;;;;;;;11.53;4.27;;;-7.90;99.90;;;;;;2220609;64;20111;-43
2022/01/28 02:51:04;;;;;;;14.57;5.13;;;-7.90;99.90;;;;;;2220452;64;20202;-42
2022/01/28 02:53:48;;;;;;;15.43;5.87;;;-7.80;99.90;;;;;;2220532;64;20503;-43
2022/01/28 02:56:21;;;;;;;17.67;7.53;;;-7.80;99.90;;;;;;2220339;64;20107;-42
2022/01/28 02:58:48;;;;;;;17.60;6.30;;;-7.80;99.90;;;;;;2216763;64;20092;-42
2022/01/28 03:01:18;;;;;;;16.93;6.60;;;-7.80;99.90;;;;;;2220160;64;20460;-44
2022/01/28 03:03:45;;;;;;;19.17;7.13;;;-7.80;99.90;;;;;;2221153;64;20105;-43
2022/01/28 03:06:13;;;;;;;17.63;6.37;;;-7.70;99.90;;;;;;2217135;64;20103;-43
2022/01/28 03:08:43;;;;;;;15.73;6.30;;;-7.70;99.90;;;;;;2221663;64;20165;-43
2022/01/28 03:16:27;;;;;;;19.37;6.70;;;-7.70;99.90;;;;;;2224940;64;20095;-43
2022/01/28 03:18:58;;;;;;;16.20;6.33;;;-7.70;99.90;;;;;;2224727;64;20084;-43
2022/01/28 03:23:53;;;;;;;14.17;5.33;;;-7.60;99.90;;;;;;2224923;64;20567;-43
2022/01/28 03:26:20;;;;;;;22.50;7.97;;;-7.60;99.90;;;;;;2224970;64;20092;-43
2022/01/28 03:28:46;;;;;;;15.10;6.33;;;-7.50;99.90;;;;;;2224623;64;20499;-43
2022/01/28 03:31:13;;;;;;;23.23;7.60;;;-7.50;99.90;;;;;;2224893;64;20552;-43
2022/01/28 03:33:39;;;;;;;18.30;7.33;;;-7.50;99.90;;;;;;2224815;64;20084;-43
2022/01/28 03:36:10;;;;;;;21.87;8.37;;;-7.50;99.90;;;;;;2225066;64;20096;-44
2022/01/28 03:38:37;;;;;;;17.53;6.77;;;-7.50;99.90;;;;;;2221063;64;20095;-43
2022/01/28 03:41:05;;;;;;;21.30;9.97;;;-7.50;99.90;;;;;;2224915;64;20174;-44
2022/01/28 03:43:31;;;;;;;15.73;6.63;;;-7.50;99.90;;;;;;2224879;64;20099;-43
2022/01/28 03:45:58;;;;;;;22.27;8.10;;;-7.50;99.90;;;;;;2224994;64;20110;-43
2022/01/28 03:48:24;;;;;;;19.10;7.50;;;-7.50;99.90;;;;;;2224794;64;20084;-43
2022/01/28 03:50:51;;;;;;;18.70;5.67;;;-7.50;99.90;;;;;;2225048;64;20683;-43
2022/01/28 03:53:18;;;;;;;13.60;4.93;;;-7.50;99.90;;;;;;2220899;64;20479;-44
2022/01/28 03:55:45;;;;;;;24.23;13.23;;;-7.40;99.90;;;;;;2224669;64;20099;-47
2022/01/28 03:58:12;;;;;;;14.17;5.77;;;-7.40;99.90;;;;;;2224667;64;20091;-43
2022/01/28 04:00:38;;;;;;;24.17;10.27;;;-7.40;99.90;;;;;;2224826;64;20575;-46
2022/01/28 04:03:24;;;;;;;21.00;9.47;;;-7.40;99.90;;;;;;2224785;64;20085;-43
2022/01/28 04:11:26;;;;;;;18.77;8.60;;;-7.30;99.90;;;;;;2224783;64;20102;-43
2022/01/28 04:11:33;;;;;;;23.73;9.07;;;-7.30;99.90;;;;;;2220590;64;20507;-43
2022/01/28 04:14:10;;;;;;;45.20;26.27;;;-7.30;99.90;;;;;;2220863;64;20128;-44
2022/01/28 04:19:21;;;;;;;22.42;9.48;;;-7.10;99.90;;;;;;2220742;64;20085;-43
2022/01/28 04:21:48;;;;;;;21.87;8.03;;;-7.20;99.90;;;;;;2220980;64;20089;-44
2022/01/28 04:24:14;;;;;;;23.40;8.53;;;-7.10;99.90;;;;;;2216980;64;20095;-43
2022/01/28 04:26:41;;;;;;;25.37;8.87;;;-7.10;99.90;;;;;;2220917;64;20111;-44
2022/01/28 04:29:08;;;;;;;20.73;8.67;;;-7.20;99.90;;;;;;2221066;64;20106;-43
2022/01/28 04:31:36;;;;;;;19.40;8.03;;;-7.10;99.90;;;;;;2220728;64;20085;-43
2022/01/28 04:34:02;;;;;;;21.43;8.27;;;-7.10;99.90;;;;;;2220790;64;20532;-44
2022/01/28 04:36:34;;;;;;;19.83;7.47;;;-7.10;99.90;;;;;;2220647;64;20081;-43
2022/01/28 04:39:11;;;;;;;19.20;7.47;;;-7.20;99.90;;;;;;2220835;64;20095;-44
2022/01/28 04:41:51;;;;;;;17.53;7.00;;;-7.20;99.90;;;;;;2220994;64;20100;-44
2022/01/28 04:44:24;;;;;;;20.00;7.43;;;-7.20;99.90;;;;;;2220959;64;20092;-44
2022/01/28 04:47:01;;;;;;;11.70;5.93;;;-7.20;99.90;;;;;;2220797;64;20150;-43
2022/01/28 04:49:45;;;;;;;18.53;6.10;;;-7.20;99.90;;;;;;2220791;64;20150;-44
2022/01/28 05:05:05;;;;;;;22.95;8.02;;;-7.30;99.90;;;;;;2207507;64;20105;-43
2022/01/28 05:07:43;;;;;;;16.80;6.60;;;-7.30;99.90;;;;;;2207380;64;20101;-43
2022/01/28 05:10:46;;;;;;;13.47;4.60;;;-7.20;99.90;;;;;;2210274;64;20493;-42
2022/01/28 05:16:26;;;;;;;9.13;4.22;;;-7.20;99.90;;;;;;2208080;64;20085;-44
2022/01/28 05:27:03;;;;;;;17.45;5.63;;;-7.10;99.90;;;;;;2211283;64;20081;-43
2022/01/28 05:29:30;;;;;;;19.90;7.30;;;-7.00;99.90;;;;;;2220704;64;20096;-45
2022/01/28 05:31:56;;;;;;;18.23;7.93;;;-7.00;99.90;;;;;;2220436;64;20109;-43
2022/01/28 05:34:25;;;;;;;15.87;5.90;;;-7.00;99.90;;;;;;2220590;64;20099;-43
2022/01/28 05:36:52;;;;;;;17.40;5.83;;;-6.90;99.90;;;;;;2220445;64;20107;-43
2022/01/28 05:39:19;;;;;;;22.70;8.00;;;-6.90;99.90;;;;;;2220688;64;20108;-43
2022/01/28 05:41:45;;;;;;;11.47;5.43;;;-6.90;99.90;;;;;;2219932;64;20111;-45
2022/01/28 05:44:12;;;;;;;14.13;5.30;;;-6.80;99.90;;;;;;2220660;64;20096;-44
2022/01/28 05:46:38;;;;;;;17.27;6.17;;;-6.70;99.90;;;;;;2219878;64;20082;-45
2022/01/28 05:49:05;;;;;;;10.40;4.10;;;-6.70;99.90;;;;;;2220697;64;20119;-44
2022/01/28 05:51:32;;;;;;;12.10;5.77;;;-6.60;99.90;;;;;;2219689;64;20180;-44
2022/01/28 05:53:58;;;;;;;13.37;5.27;;;-6.60;99.90;;;;;;2220702;64;20108;-43
2022/01/28 05:56:26;;;;;;;16.57;5.93;;;-6.60;99.90;;;;;;2223083;64;20107;-44
2022/01/28 05:58:52;;;;;;;13.60;5.20;;;-6.50;99.90;;;;;;2224390;64;20173;-43
2022/01/28 06:01:19;;;;;;;20.90;8.13;;;-6.50;99.90;;;;;;2224445;64;20088;-43
2022/01/28 06:03:47;;;;;;;16.20;7.13;;;-6.40;99.90;;;;;;2220578;64;20177;-43
2022/01/28 06:06:19;;;;;;;7.00;4.00;;;-6.40;99.90;;;;;;2220390;64;20107;-43
2022/01/28 06:08:51;;;;;;;10.40;4.17;;;-6.30;99.90;;;;;;2223672;64;20116;-43
2022/01/28 06:11:17;;;;;;;16.50;5.10;;;-6.30;99.90;;;;;;2216548;64;20116;-45
2022/01/28 06:13:44;;;;;;;18.63;7.17;;;-6.20;99.90;;;;;;2220668;64;20085;-44
2022/01/28 06:16:12;;;;;;;12.87;5.40;;;-6.20;99.90;;;;;;2220443;64;20544;-44
2022/01/28 06:18:39;;;;;;;15.03;5.07;;;-6.10;99.90;;;;;;2220656;64;20084;-44
2022/01/28 06:21:05;;;;;;;15.40;5.37;;;-6.00;99.90;;;;;;2216514;64;20166;-49
2022/01/28 06:23:32;;;;;;;14.13;6.97;;;-6.00;99.90;;;;;;2220613;64;20177;-43
2022/01/28 06:25:58;;;;;;;20.43;7.07;;;-5.90;99.90;;;;;;2220363;64;20085;-43
2022/01/28 06:28:25;;;;;;;14.53;5.97;;;-5.80;99.90;;;;;;2220492;64;20553;-43
2022/01/28 06:30:51;;;;;;;17.57;6.57;;;-5.80;99.90;;;;;;2220428;64;20100;-44
2022/01/28 06:33:18;;;;;;;14.37;5.50;;;-5.70;99.90;;;;;;2220640;64;20548;-43
2022/01/28 06:35:45;;;;;;;18.77;7.40;;;-5.60;99.90;;;;;;2216582;64;20105;-45
2022/01/28 06:38:12;;;;;;;18.00;5.97;;;-5.60;99.90;;;;;;2221077;64;20085;-43
2022/01/28 06:40:38;;;;;;;15.17;6.60;;;-5.50;99.90;;;;;;2221005;64;20088;-44
2022/01/28 06:43:08;;;;;;;10.60;4.13;;;-5.40;99.90;;;;;;2221217;64;20544;-43
2022/01/28 06:45:35;;;;;;;16.33;6.57;;;-5.40;99.90;;;;;;2217441;64;20132;-43
2022/01/28 06:48:02;;;;;;;20.10;8.97;;;-5.30;99.90;;;;;;2221089;64;20085;-44
2022/01/28 06:50:28;;;;;;;8.70;3.50;;;-5.10;99.90;;;;;;2221107;64;20089;-45
2022/01/28 06:52:54;;;;;;;18.97;8.57;;;-5.10;99.90;;;;;;2221092;64;20469;-44
2022/01/28 06:55:21;;;;;;;14.53;6.23;;;-5.00;99.90;;;;;;2220876;64;20519;-44
2022/01/28 06:57:47;;;;;;;2.37;1.53;;;-4.90;99.90;;;;;;2220955;64;20530;-44
2022/01/28 07:00:14;;;;;;;12.13;4.73;;;-4.80;99.90;;;;;;2221058;64;20883;-44
2022/01/28 07:02:41;;;;;;;12.63;4.97;;;-4.80;99.90;;;;;;2214101;64;20084;-45
2022/01/28 07:05:08;;;;;;;16.17;6.83;;;-4.70;99.90;;;;;;2220879;64;20112;-44
2022/01/28 07:07:36;;;;;;;15.90;6.83;;;-4.50;99.90;;;;;;2220852;64;20534;-43
2022/01/28 07:10:03;;;;;;;18.17;7.13;;;-4.40;99.90;;;;;;2223691;64;20100;-44
2022/01/28 07:12:29;;;;;;;10.97;5.37;;;-4.30;99.90;;;;;;2224711;64;20533;-45
2022/01/28 07:14:56;;;;;;;14.33;6.60;;;-4.20;99.90;;;;;;2224854;64;20444;-45
2022/01/28 07:17:22;;;;;;;15.83;6.47;;;-4.00;99.90;;;;;;2224927;64;20535;-44
2022/01/28 07:19:48;;;;;;;13.63;6.43;;;-4.00;99.90;;;;;;2224568;64;20100;-44
2022/01/28 07:22:15;;;;;;;16.63;7.30;;;-3.90;99.90;;;;;;2220992;64;20103;-45
2022/01/28 07:24:42;;;;;;;13.33;6.80;;;-3.80;99.90;;;;;;2220971;64;20153;-44
2022/01/28 07:27:09;;;;;;;12.97;6.30;;;-3.60;99.90;;;;;;2224919;64;20571;-44
2022/01/28 07:29:35;;;;;;;15.43;7.47;;;-3.60;99.90;;;;;;2224804;64;20176;-45
2022/01/28 07:32:02;;;;;;;15.07;6.80;;;-3.40;99.90;;;;;;2224692;64;20092;-44
2022/01/28 07:34:28;;;;;;;16.10;7.27;;;-3.30;99.90;;;;;;2220641;64;20553;-44
2022/01/28 07:36:55;;;;;;;13.97;6.43;;;-3.30;99.90;;;;;;2224900;64;20088;-44
2022/01/28 07:39:21;;;;;;;13.10;6.53;;;-3.10;99.90;;;;;;2220931;64;20084;-44
2022/01/28 07:41:48;;;;;;;12.07;6.17;;;-3.10;99.90;;;;;;2224979;64;20629;-44
2022/01/28 07:44:14;;;;;;;11.37;6.67;;;-3.00;99.90;;;;;;2224863;64;20433;-45
2022/01/28 07:46:41;;;;;;;13.43;6.07;;;-3.00;99.90;;;;;;2224899;64;20927;-43
2022/01/28 07:49:07;;;;;;;14.23;6.40;;;-2.80;99.90;;;;;;2224699;64;20103;-44
2022/01/28 07:51:35;;;;;;;12.47;6.27;;;-2.70;99.90;;;;;;2224765;64;20111;-43
2022/01/28 07:54:03;;;;;;;13.90;6.67;;;-2.50;99.90;;;;;;2224569;64;20143;-43
2022/01/28 07:56:29;;;;;;;12.37;6.40;;;-2.20;99.90;;;;;;2220078;64;20104;-43
2022/01/28 07:58:56;;;;;;;12.40;5.60;;;-2.10;99.90;;;;;;2220723;64;20089;-43
2022/01/28 08:01:22;;;;;;;13.40;6.60;;;-1.90;99.90;;;;;;2220985;64;20096;-46
2022/01/28 08:03:49;;;;;;;11.47;6.13;;;-1.70;99.90;;;;;;2220981;64;20144;-50
2022/01/28 08:06:15;;;;;;;12.13;5.53;;;-1.50;99.90;;;;;;2220883;64;20084;-38
2022/01/28 08:08:42;;;;;;;15.43;6.70;;;-1.30;99.90;;;;;;2220047;64;20099;-37
2022/01/28 08:11:08;;;;;;;12.47;6.03;;;-1.10;99.90;;;;;;2217026;64;20100;-37
2022/01/28 08:13:34;;;;;;;13.60;6.67;;;-0.90;99.90;;;;;;2216782;64;20472;-37
2022/01/28 08:16:01;;;;;;;15.23;6.13;;;-1.00;99.90;;;;;;2216931;64;20533;-37
2022/01/28 08:18:27;;;;;;;12.33;6.30;;;-1.10;99.90;;;;;;2216714;64;20577;-36
2022/01/28 08:20:54;;;;;;;15.87;6.63;;;-1.20;99.90;;;;;;2216829;64;20097;-38
2022/01/28 08:23:20;;;;;;;20.63;7.07;;;-1.30;99.90;;;;;;2216901;64;20089;-39
2022/01/28 08:25:48;;;;;;;13.57;7.00;;;-1.30;99.90;;;;;;2217114;64;20289;-38
2022/01/28 08:28:15;;;;;;;14.00;7.57;;;-1.30;99.90;;;;;;2216894;64;20541;-49
2022/01/28 08:30:41;;;;;;;13.30;6.33;;;-1.30;99.90;;;;;;2216975;64;20165;-38
2022/01/28 08:33:08;;;;;;;15.70;6.57;;;-1.30;99.90;;;;;;2216867;64;20115;-37
2022/01/28 08:35:38;;;;;;;12.90;5.97;;;-1.40;99.90;;;;;;2217024;64;20092;-38
2022/01/28 08:38:14;;;;;;;14.93;6.63;;;-1.40;99.90;;;;;;2216275;64;20505;-42
2022/01/28 08:40:40;;;;;;;14.60;7.00;;;-1.50;99.90;;;;;;2216348;64;20148;-43
2022/01/28 08:43:07;;;;;;;13.97;6.77;;;-1.50;99.90;;;;;;2216348;64;20143;-40
2022/01/28 08:45:34;;;;;;;13.07;6.03;;;-1.40;99.90;;;;;;2216946;64;20147;-41
2022/01/28 08:48:00;;;;;;;13.80;6.97;;;-1.30;99.90;;;;;;2216889;64;20100;-39
2022/01/28 08:50:27;;;;;;;13.90;6.23;;;-1.30;99.90;;;;;;2216851;64;20089;-39
2022/01/28 08:52:53;;;;;;;14.37;7.00;;;-1.10;99.90;;;;;;2216673;64;20120;-49
2022/01/28 08:55:19;;;;;;;11.47;5.67;;;-0.90;99.90;;;;;;2217799;64;20186;-37
2022/01/28 08:57:46;;;;;;;15.07;7.00;;;-0.80;99.90;;;;;;2220709;64;20148;-35
2022/01/28 09:00:13;;;;;;;10.87;5.90;;;-0.80;99.90;;;;;;2220657;64;20152;-35
2022/01/28 09:02:41;;;;;;;12.93;6.17;;;-0.90;99.90;;;;;;2220619;64;20088;-35
2022/01/28 09:05:08;;;;;;;13.17;6.67;;;-0.90;99.90;;;;;;2216963;64;20155;-38
2022/01/28 09:07:34;;;;;;;9.47;5.43;;;-0.90;99.90;;;;;;2220625;64;20107;-35
2022/01/28 09:10:08;;;;;;;11.50;6.03;;;-0.80;99.90;;;;;;2223537;64;20080;-33
2022/01/28 09:12:39;;;;;;;10.93;5.50;;;-0.60;99.90;;;;;;2224288;64;20488;-27
2022/01/28 09:15:07;;;;;;;16.33;6.17;;;-0.50;99.90;;;;;;2224578;64;20460;-33
2022/01/28 09:17:34;;;;;;;13.57;6.63;;;-0.80;99.90;;;;;;2224461;64;20088;-34
2022/01/28 09:20:02;;;;;;;10.90;5.57;;;-0.70;99.90;;;;;;2224446;64;20095;-31
2022/01/28 09:22:28;;;;;;;11.20;5.50;;;-0.70;99.90;;;;;;2224308;64;20152;-39
2022/01/28 09:24:55;;;;;;;12.93;6.37;;;-0.60;99.90;;;;;;2224627;64;20088;-39
2022/01/28 09:27:21;;;;;;;15.90;6.53;;;-0.50;99.90;;;;;;2224492;64;20094;-27
2022/01/28 09:29:47;;;;;;;16.97;7.80;;;-0.40;99.90;;;;;;2224563;64;20096;-25
2022/01/28 09:32:16;;;;;;;12.37;5.93;;;-0.40;99.90;;;;;;2224349;64;20098;-27
2022/01/28 09:34:44;;;;;;;17.23;8.10;;;-0.50;99.90;;;;;;2224447;64;20104;-25
2022/01/28 09:37:15;;;;;;;11.73;6.87;;;-0.50;99.90;;;;;;2224168;64;20525;-24
2022/01/28 09:39:46;;;;;;;8.73;5.47;;;-0.40;99.90;;;;;;2224404;64;20084;-25
2022/01/28 09:42:15;;;;;;;18.70;9.27;;;-0.40;99.90;;;;;;2220641;64;20204;-25
2022/01/28 09:44:42;;;;;;;15.17;6.47;;;-0.30;99.90;;;;;;2224590;64;20122;-26
2022/01/28 09:47:12;;;;;;;14.33;7.53;;;-0.30;99.90;;;;;;2224237;64;20072;-27
2022/01/28 09:49:41;;;;;;;14.43;6.60;;;-0.30;99.90;;;;;;2224490;64;20142;-27
2022/01/28 09:52:09;;;;;;;15.87;7.23;;;-0.40;99.90;;;;;;2224292;64;20123;-26
2022/01/28 09:54:36;;;;;;;13.47;7.30;;;-0.50;99.90;;;;;;2224497;64;20118;-28
2022/01/28 09:57:03;;;;;;;15.97;6.97;;;-0.50;99.90;;;;;;2224299;64;20084;-27
2022/01/28 09:59:29;;;;;;;14.47;7.53;;;-0.60;99.90;;;;;;2224499;64;20539;-27
2022/01/28 10:01:56;;;;;;;12.40;5.77;;;-0.60;99.90;;;;;;2220538;64;20572;-26
2022/01/28 10:04:22;;;;;;;14.93;7.40;;;-0.60;99.90;;;;;;2224587;64;20200;-26
2022/01/28 10:06:49;;;;;;;14.37;8.37;;;-0.60;99.90;;;;;;2224254;64;20103;-27
2022/01/28 10:09:18;;;;;;;18.07;8.60;;;-0.60;99.90;;;;;;2222915;64;20093;-26
2022/01/28 10:11:48;;;;;;;15.20;7.90;;;-0.40;99.90;;;;;;2220720;64;20096;-26
2022/01/28 10:14:18;;;;;;;13.40;7.43;;;-0.40;99.90;;;;;;2221223;64;20152;-26
2022/01/28 10:17:01;;;;;;;14.43;7.83;;;-0.30;99.90;;;;;;2220993;64;20173;-26
2022/01/28 10:19:38;;;;;;;17.43;7.97;;;-0.20;99.90;;;;;;2221245;64;20472;-27
2022/01/28 10:22:16;;;;;;;18.30;8.10;;;-0.20;99.90;;;;;;2217558;64;20111;-25
2022/01/28 10:24:43;;;;;;;15.33;7.60;;;-0.10;99.90;;;;;;2221028;64;20148;-25
2022/01/28 10:27:09;;;;;;;10.43;5.73;;;-0.20;99.90;;;;;;2217133;64;20088;-29
2022/01/28 10:29:40;;;;;;;7.93;4.60;;;-0.10;99.90;;;;;;2221193;64;20441;-25
2022/01/28 10:32:12;;;;;;;13.07;6.50;;;-0.10;99.90;;;;;;2220987;64;20111;-25
2022/01/28 10:34:40;;;;;;;9.00;4.50;;;0.30;99.90;;;;;;2220878;64;20172;-27
2022/01/28 10:37:09;;;;;;;8.83;5.27;;;0.40;99.90;;;;;;2221142;64;20556;-26
2022/01/28 10:39:42;;;;;;;6.90;2.80;;;0.50;99.90;;;;;;2220903;64;20093;-27
2022/01/28 10:42:09;;;;;;;8.90;4.37;;;0.20;99.90;;;;;;2221066;64;20147;-24
2022/01/28 10:44:49;;;;;;;9.03;4.83;;;-0.10;98.30;;;;;;2220793;64;20100;-26
2022/01/28 10:47:16;;;;;;;8.93;5.00;;;-0.30;99.90;;;;;;2217639;64;20433;-25
2022/01/28 10:49:43;;;;;;;11.97;4.90;;;0.00;99.90;;;;;;2213841;64;20092;-25
2022/01/28 10:52:13;;;;;;;9.00;3.43;;;0.00;99.90;;;;;;2220958;64;20112;-29
2022/01/28 10:54:41;;;;;;;6.63;4.07;;;-0.30;99.90;;;;;;2220991;64;20089;-25
2022/01/28 10:57:08;;;;;;;9.33;5.57;;;-0.50;99.90;;;;;;2220905;64;20108;-24
2022/01/28 10:59:40;;;;;;;24.50;9.60;;;-0.50;99.90;;;;;;2217027;64;20103;-25
2022/01/28 11:02:06;;;;;;;5.03;1.83;;;-0.60;99.90;;;;;;2220955;64;20092;-24
2022/01/28 11:04:33;;;;;;;7.20;4.10;;;-0.70;99.90;;;;;;2221154;64;20169;-26
2022/01/28 11:07:01;;;;;;;7.70;3.93;;;-0.90;99.90;;;;;;2221051;64;20170;-26
2022/01/28 11:09:29;;;;;;;8.10;1.47;;;-1.00;99.90;;;;;;2219005;64;20579;-27
2022/01/28 11:11:55;;;;;;;16.93;8.60;;;-1.00;99.90;;;;;;2224669;64;20508;-27
2022/01/28 11:14:22;;;;;;;11.53;5.07;;;-1.00;99.90;;;;;;2224813;64;20088;-27
2022/01/28 11:16:48;;;;;;;11.87;4.83;;;-1.00;99.90;;;;;;2224572;64;20118;-27
2022/01/28 11:19:19;;;;;;;17.50;8.60;;;-1.10;99.90;;;;;;2224958;64;20084;-28
2022/01/28 11:22:08;;;;;;;15.27;6.07;;;-1.20;99.90;;;;;;2220919;64;20088;-28
2022/01/28 11:24:38;;;;;;;15.80;6.97;;;-1.40;99.90;;;;;;2221197;64;20590;-29
2022/01/28 11:27:27;;;;;;;11.43;4.70;;;-1.50;99.90;;;;;;2220805;64;20305;-27
2022/01/28 11:30:13;;;;;;;19.80;7.50;;;-1.40;99.90;;;;;;2224761;64;20084;-30
2022/01/28 11:33:02;;;;;;;;;;;-1.50;99.90;;;;;;2221039;64;20088;-29
2022/01/28 11:35:39;;;;;;;24.23;11.30;;;-1.50;99.90;;;;;;2224729;64;19968;-30
2022/01/28 11:38:24;;;;;;;23.20;10.70;;;-1.50;99.90;;;;;;2224629;64;20080;-30
2022/01/28 11:41:00;;;;;;;20.77;10.38;;;-1.40;99.90;;;;;;2224692;64;20104;-32
2022/01/28 11:43:28;;;;;;;20.87;9.43;;;-1.30;99.90;;;;;;2224655;64;20103;-33
2022/01/28 11:46:05;;;;;;;15.87;7.73;;;-1.20;99.90;;;;;;2224833;64;20552;-33
2022/01/28 11:49:02;;;;;;;16.10;9.07;;;-1.40;99.90;;;;;;2224609;64;20087;-33
2022/01/28 11:51:37;;;;;;;16.07;7.63;;;-1.50;99.90;;;;;;2224647;64;20115;-32
2022/01/28 11:54:05;;;;;;;19.48;8.30;;;-1.70;99.90;;;;;;2224804;64;20655;-34
2022/01/28 11:56:32;;;;;;;16.17;8.37;;;-1.80;99.90;;;;;;2224496;64;20182;-34
2022/01/28 11:59:00;;;;;;;22.37;10.00;;;-1.90;99.90;;;;;;2224828;64;20103;-33
2022/01/28 12:01:49;;;;;;;23.07;10.27;;;-1.90;99.90;;;;;;2220808;64;20100;-35
2022/01/28 12:04:36;;;;;;;26.03;10.13;;;-1.90;99.90;;;;;;2224705;64;20155;-35
2022/01/28 12:07:18;;;;;;;18.07;8.40;;;-2.10;99.90;;;;;;2224817;64;20096;-37
2022/01/28 12:09:52;;;;;;;22.13;9.00;;;-2.10;99.90;;;;;;2222494;64;20084;-36
2022/01/28 12:12:40;;;;;;;19.48;8.18;;;-2.20;99.90;;;;;;2220559;64;20209;-36
2022/01/28 12:15:13;;;;;;;18.90;8.67;;;-2.20;99.90;;;;;;2220428;64;20618;-36
2022/01/28 12:17:44;;;;;;;21.23;7.90;;;-2.30;99.90;;;;;;2220905;64;20100;-37
2022/01/28 12:20:18;;;;;;;22.40;9.47;;;-2.30;99.90;;;;;;2220892;64;20100;-39
2022/01/28 12:23:02;;;;;;;19.77;8.80;;;-2.40;99.90;;;;;;2220734;64;20173;-41
2022/01/28 12:25:41;;;;;;;19.40;9.00;;;-2.40;99.90;;;;;;2220829;64;20496;-40
2022/01/28 12:28:26;;;;;;;16.87;7.90;;;-2.50;99.90;;;;;;2220655;64;20305;-35
2022/01/28 12:31:07;;;;;;;16.73;8.38;;;-2.70;99.90;;;;;;2220782;64;20103;-37
2022/01/28 12:33:36;;;;;;;21.47;8.57;;;-2.80;99.90;;;;;;2216778;64;20642;-35
2022/01/28 12:36:07;;;;;;;18.27;8.07;;;-2.90;99.90;;;;;;2220755;64;20096;-35
2022/01/28 12:38:45;;;;;;;15.60;7.50;;;-3.00;99.90;;;;;;2220648;64;20472;-37
2022/01/28 12:41:14;;;;;;;21.13;8.07;;;-3.10;99.90;;;;;;2217140;64;20533;-35
2022/01/28 12:43:41;;;;;;;16.87;9.17;;;-3.20;99.90;;;;;;2216803;64;20111;-36
2022/01/28 12:46:12;;;;;;;21.47;9.43;;;-3.30;99.90;;;;;;2220552;64;20092;-36
2022/01/28 12:48:49;;;;;;;24.40;10.13;;;-3.40;99.90;;;;;;2220536;64;20093;-34
2022/01/28 12:51:16;;;;;;;24.97;10.90;;;-3.40;99.90;;;;;;2220801;64;20198;-34
2022/01/28 12:53:44;;;;;;;20.43;9.17;;;-3.50;99.90;;;;;;2220639;64;20169;-34
2022/01/28 12:56:11;;;;;;;19.83;9.30;;;-3.60;99.90;;;;;;2220511;64;20100;-34
2022/01/28 12:58:38;;;;;;;19.40;8.77;;;-3.70;99.90;;;;;;2220539;64;20591;-36
2022/01/28 13:01:09;;;;;;;24.37;11.53;;;-3.70;99.90;;;;;;2220707;64;20084;-32
2022/01/28 13:03:47;;;;;;;22.87;8.97;;;-3.70;99.90;;;;;;2220617;64;20093;-34
2022/01/28 13:09:01;;;;;;;20.60;8.43;;;-3.80;99.90;;;;;;2221691;64;20095;-34
2022/01/28 13:11:28;;;;;;;20.37;8.60;;;-3.80;99.90;;;;;;2224400;64;20100;-34
2022/01/28 13:13:56;;;;;;;22.53;9.67;;;-3.80;99.90;;;;;;2224411;64;20107;-33
2022/01/28 13:16:33;;;;;;;26.97;10.67;;;-3.80;99.90;;;;;;2224353;64;20088;-33
2022/01/28 13:19:00;;;;;;;20.67;8.97;;;-4.00;99.90;;;;;;2224286;64;20100;-36
2022/01/28 13:21:27;;;;;;;13.03;5.97;;;-4.10;99.90;;;;;;2220560;64;20178;-34
2022/01/28 13:24:24;;;;;;;11.40;4.20;;;-4.20;99.90;;;;;;2224339;64;20506;-32
2022/01/28 13:26:59;;;;;;;15.23;4.53;;;-4.30;99.90;;;;;;2195493;65;20159;-33
2022/01/28 13:29:32;;;;;;;16.75;5.57;;;-4.40;99.90;;;;;;2195818;65;20106;-35
2022/01/28 13:32:00;;;;;;;5.97;2.93;;;-4.40;99.90;;;;;;2195777;65;20542;-38
2022/01/28 13:34:27;;;;;;;2.20;1.10;;;-4.50;99.90;;;;;;2195835;65;20547;-36
2022/01/28 13:36:56;;;;;;;9.20;3.73;;;-4.50;99.90;;;;;;2195921;65;20598;-33
2022/01/28 13:39:25;;;;;;;9.17;3.53;;;-4.60;99.90;;;;;;2195768;65;20185;-34
2022/01/28 13:42:12;;;;;;;14.97;5.87;;;-4.70;99.90;;;;;;2195876;65;20647;-33
2022/01/28 13:44:42;;;;;;;16.63;6.43;;;-4.80;99.90;;;;;;2195853;65;20160;-37
2022/01/28 13:47:09;;;;;;;18.10;7.33;;;-4.80;99.90;;;;;;2195956;65;20106;-36
2022/01/28 13:49:37;;;;;;;14.33;6.47;;;-4.90;99.90;;;;;;2195910;65;20186;-36
2022/01/28 13:52:12;;;;;;;21.47;7.73;;;-4.90;99.90;;;;;;2195748;65;20091;-36
2022/01/28 13:54:38;;;;;;;15.37;6.63;;;-5.00;99.90;;;;;;2195781;65;20154;-36
2022/01/28 13:57:06;;;;;;;19.30;7.00;;;-5.00;99.90;;;;;;2196748;65;20106;-37
2022/01/28 13:59:33;;;;;;;18.40;7.93;;;-5.10;99.90;;;;;;2203263;65;20082;-35
2022/01/28 14:02:00;;;;;;;15.50;7.17;;;-5.20;99.90;;;;;;2203399;65;20277;-36
2022/01/28 14:04:27;;;;;;;16.83;6.90;;;-5.20;99.90;;;;;;2223246;64;20096;-38